Time;durP1;ratioP1;P1;durP2;ratioP2;P2;SDS_P1;SDS_P2;PMS_P1;PMS_P2;Temp;Humidity;BMP_temperature;BMP_pressure;BME280_temperature;BME280_humidity;BME280_pressure;Samples;Min_cycle;Max_cycle;Signal;HPM_P1;HPM_P2
2024/01/12 00:00:52;;;;;;;274.58;83.32;;;;;;;;;;6213900;23;20001;-78
2024/01/12 00:03:18;;;;;;;206.45;70.13;;;-1.60;99.90;;;;;;6211773;23;20417;-78
2024/01/12 00:05:45;;;;;;;169.88;54.38;;;;;;;;;;6195748;23;20012;-78
2024/01/12 00:08:11;;;;;;;118.15;38.90;;;;;;;;;;6214768;23;20155;-78
2024/01/12 00:10:36;;;;;;;129.05;45.30;;;-1.60;99.90;;;;;;6210951;23;20020;-79
2024/01/12 00:13:02;;;;;;;191.20;59.65;;;-1.60;99.90;;;;;;6209185;23;20014;-78
2024/01/12 00:15:28;;;;;;;136.93;49.22;;;;;;;;;;6209067;23;20004;-79
2024/01/12 00:17:54;;;;;;;189.75;62.88;;;-1.70;99.90;;;;;;6212664;23;20004;-80
2024/01/12 00:20:19;;;;;;;240.18;74.70;;;-1.70;99.90;;;;;;6214175;23;20024;-79
2024/01/12 00:22:45;;;;;;;210.20;68.22;;;-1.70;99.90;;;;;;6213439;23;20015;-78
2024/01/12 00:25:10;;;;;;;197.20;61.25;;;-1.70;99.90;;;;;;6184061;23;20071;-78
2024/01/12 00:27:36;;;;;;;155.27;55.45;;;;;;;;;;6210399;23;20019;-78
2024/01/12 00:30:02;;;;;;;156.50;54.28;;;-1.80;99.90;;;;;;6211094;23;20039;-78
2024/01/12 00:32:28;;;;;;;112.13;40.00;;;-1.80;99.90;;;;;;6211550;23;20032;-77
2024/01/12 00:34:54;;;;;;;95.07;34.50;;;;;;;;;;6211423;22;20011;-78
2024/01/12 00:37:20;;;;;;;67.43;26.42;;;;;;;;;;6212320;23;20008;-77
2024/01/12 00:39:45;;;;;;;71.97;28.05;;;-1.80;99.90;;;;;;6211468;23;20005;-79
2024/01/12 00:42:11;;;;;;;59.05;25.58;;;;;;;;;;6210606;23;20009;-79
2024/01/12 00:44:37;;;;;;;60.03;24.77;;;;;;;;;;6211072;23;20036;-79
2024/01/12 00:47:03;;;;;;;57.95;23.38;;;-1.80;99.90;;;;;;6211492;23;20005;-79
2024/01/12 00:49:29;;;;;;;53.72;22.60;;;-1.80;99.90;;;;;;6211117;23;20082;-79
2024/01/12 00:51:55;;;;;;;51.22;22.27;;;;;;;;;;6213375;23;20016;-78
2024/01/12 00:54:26;;;;;;;49.15;20.65;;;-1.80;99.90;;;;;;6210016;23;20085;-78
2024/01/12 00:56:52;;;;;;;49.05;20.13;;;-1.90;99.90;;;;;;6209037;23;20008;-79
2024/01/12 00:59:19;;;;;;;46.10;19.73;;;-1.90;99.90;;;;;;6212516;23;20001;-78
2024/01/12 01:01:45;;;;;;;39.85;19.05;;;;;;;;;;6217240;23;20004;-79
2024/01/12 01:04:11;;;;;;;45.80;19.45;;;;;;;;;;6232299;23;20012;-80
2024/01/12 01:06:37;;;;;;;43.30;17.65;;;-1.90;99.90;;;;;;6223152;23;20028;-79
2024/01/12 01:09:03;;;;;;;41.17;18.10;;;;;;;;;;6187768;23;20001;-79
2024/01/12 01:11:29;;;;;;;33.93;16.37;;;-2.00;99.90;;;;;;6213224;23;20018;-79
2024/01/12 01:13:55;;;;;;;42.08;17.60;;;;;;;;;;6210807;23;20005;-78
2024/01/12 01:16:21;;;;;;;38.30;16.87;;;-2.00;99.90;;;;;;6212427;23;20004;-79
2024/01/12 01:18:47;;;;;;;38.58;17.27;;;;;;;;;;6214995;23;20032;-79
2024/01/12 01:21:12;;;;;;;35.33;17.13;;;-2.00;99.90;;;;;;6207033;23;20008;-79
2024/01/12 01:23:38;;;;;;;33.65;15.82;;;-1.50;99.90;;;;;;6207430;23;20009;-78
2024/01/12 01:26:03;;;;;;;36.97;15.98;;;-2.10;99.90;;;;;;6195677;23;20017;-79
2024/01/12 01:28:29;;;;;;;36.43;16.23;;;-2.10;99.90;;;;;;6187414;23;20004;-79
2024/01/12 01:30:55;;;;;;;38.20;16.07;;;;;;;;;;6190115;23;20028;-79
2024/01/12 01:33:21;;;;;;;39.78;17.98;;;;;;;;;;6214167;23;20004;-79
2024/01/12 01:35:47;;;;;;;36.92;17.77;;;-2.20;99.90;;;;;;6215660;23;20036;-79
2024/01/12 01:38:12;;;;;;;37.50;17.10;;;-2.10;99.90;;;;;;6212792;23;20433;-79
2024/01/12 01:40:38;;;;;;;37.75;15.75;;;-2.10;99.90;;;;;;6209607;23;20061;-78
2024/01/12 01:43:08;;;;;;;42.40;17.67;;;-2.20;99.90;;;;;;6181794;23;20080;-79
2024/01/12 01:45:36;;;;;;;36.88;14.32;;;;;;;;;;6213541;23;20005;-79
2024/01/12 01:48:03;;;;;;;32.53;15.80;;;-2.20;99.90;;;;;;6216897;23;20004;-79
2024/01/12 01:50:29;;;;;;;32.47;14.30;;;;;;;;;;6217263;23;20031;-79
2024/01/12 01:53:11;;;;;;;38.80;16.87;;;;;;;;;;6215636;23;20001;-81
2024/01/12 01:55:38;;;;;;;40.63;17.00;;;;;;;;;;6241500;22;20031;-80
2024/01/12 01:58:07;;;;;;;35.33;16.40;;;;;;;;;;6241652;22;20102;-82
2024/01/12 02:00:36;;;;;;;37.13;16.10;;;;;;;;;;6238710;23;20025;-79
2024/01/12 02:03:03;;;;;;;33.95;15.45;;;;;;;;;;6212520;23;20000;-82
2024/01/12 02:05:33;;;;;;;41.13;16.67;;;;;;;;;;6217913;23;20019;-80
2024/01/12 02:08:00;;;;;;;32.28;15.82;;;;;;;;;;6238086;23;20011;-81
2024/01/12 02:10:28;;;;;;;37.78;16.20;;;;;;;;;;6238173;23;20007;-80
2024/01/12 02:12:55;;;;;;;36.67;17.27;;;;;;;;;;6210915;23;20000;-80
2024/01/12 02:15:24;;;;;;;39.63;17.10;;;;;;;;;;6228223;23;20009;-80
2024/01/12 02:17:50;;;;;;;39.88;16.88;;;;;;;;;;6227922;23;20001;-78
2024/01/12 02:20:18;;;;;;;39.65;17.52;;;;;;;;;;6203324;23;20004;-80
2024/01/12 02:22:45;;;;;;;37.00;15.57;;;;;;;;;;6213834;23;20048;-79
2024/01/12 02:25:11;;;;;;;35.42;15.80;;;;;;;;;;6213210;23;20016;-80
2024/01/12 02:27:39;;;;;;;35.07;15.23;;;;;;;;;;6214051;23;20031;-80
2024/01/12 02:30:12;;;;;;;34.47;15.70;;;;;;;;;;6213443;23;20005;-80
2024/01/12 02:32:38;;;;;;;34.22;14.55;;;;;;;;;;6240665;23;20012;-82
2024/01/12 02:35:08;;;;;;;32.37;14.27;;;;;;;;;;6239660;23;20009;-80
2024/01/12 02:37:35;;;;;;;36.37;16.80;;;;;;;;;;6240634;23;20027;-79
2024/01/12 02:40:04;;;;;;;36.13;13.97;;;;;;;;;;6214022;23;20004;-80
2024/01/12 02:42:36;;;;;;;35.37;15.10;;;;;;;;;;6214820;23;19997;-79
2024/01/12 02:45:05;;;;;;;34.20;15.73;;;;;;;;;;6240071;22;20080;-82
2024/01/12 02:47:36;;;;;;;33.10;15.33;;;;;;;;;;6237807;23;20031;-79
2024/01/12 02:50:04;;;;;;;36.53;15.70;;;;;;;;;;6214273;23;19993;-81
2024/01/12 02:52:36;;;;;;;32.83;15.20;;;;;;;;;;6217000;23;20028;-80
2024/01/12 02:55:04;;;;;;;38.83;17.55;;;;;;;;;;6242498;22;20044;-79
2024/01/12 02:57:34;;;;;;;37.60;15.93;;;;;;;;;;6240961;23;20026;-81
2024/01/12 03:00:01;;;;;;;39.65;16.55;;;;;;;;;;6240799;23;20019;-80
2024/01/12 03:02:27;;;;;;;34.00;16.03;;;;;;;;;;6190520;23;20027;-82
2024/01/12 03:04:53;;;;;;;35.78;14.85;;;;;;;;;;6239914;23;20000;-80
2024/01/12 03:07:19;;;;;;;36.88;15.93;;;;;;;;;;6240767;23;20012;-81
2024/01/12 03:09:46;;;;;;;31.63;15.00;;;;;;;;;;6238734;23;20447;-80
2024/01/12 03:12:13;;;;;;;33.42;16.38;;;;;;;;;;6213129;23;19993;-80
2024/01/12 03:14:41;;;;;;;37.92;17.15;;;;;;;;;;6238941;23;20012;-80
2024/01/12 03:17:08;;;;;;;31.88;15.02;;;;;;;;;;6188290;23;20009;-81
2024/01/12 03:19:38;;;;;;;30.95;14.73;;;;;;;;;;6239394;23;20040;-80
2024/01/12 03:22:04;;;;;;;33.03;14.70;;;;;;;;;;6239449;23;19980;-79
2024/01/12 03:24:33;;;;;;;33.30;15.05;;;;;;;;;;6213302;23;19992;-82
2024/01/12 03:27:01;;;;;;;34.92;14.90;;;;;;;;;;6238702;23;20000;-80
2024/01/12 03:29:27;;;;;;;31.80;14.90;;;;;;;;;;6214053;23;20019;-80
2024/01/12 03:31:56;;;;;;;32.72;15.82;;;;;;;;;;6213380;23;19992;-80
2024/01/12 03:34:23;;;;;;;36.30;15.23;;;;;;;;;;6213131;23;20019;-79
2024/01/12 03:36:53;;;;;;;33.70;15.13;;;;;;;;;;6189231;23;20072;-79
2024/01/12 03:39:24;;;;;;;34.08;14.93;;;;;;;;;;6239680;23;20004;-79
2024/01/12 03:41:57;;;;;;;37.38;16.33;;;;;;;;;;6239654;23;20009;-79
2024/01/12 03:44:23;;;;;;;33.95;15.30;;;;;;;;;;6212757;23;20047;-78
2024/01/12 03:46:50;;;;;;;33.15;15.38;;;;;;;;;;6189713;23;20060;-79
2024/01/12 03:49:16;;;;;;;31.40;14.20;;;;;;;;;;6216085;23;20008;-79
2024/01/12 03:51:53;;;;;;;29.35;14.77;;;;;;;;;;6215777;23;19992;-81
2024/01/12 03:54:22;;;;;;;30.73;14.02;;;;;;;;;;6217690;23;19992;-80
2024/01/12 03:56:48;;;;;;;32.03;15.02;;;;;;;;;;6214133;23;20009;-79
2024/01/12 03:59:20;;;;;;;32.72;14.85;;;;;;;;;;6240117;23;20015;-80
2024/01/12 04:01:47;;;;;;;33.75;14.35;;;;;;;;;;6240170;23;20057;-79
2024/01/12 04:04:16;;;;;;;33.92;14.10;;;;;;;;;;6239415;23;20039;-80
2024/01/12 04:06:43;;;;;;;32.30;14.82;;;;;;;;;;6237878;23;20016;-78
2024/01/12 04:09:13;;;;;;;31.60;14.33;;;;;;;;;;6209138;23;20003;-80
2024/01/12 04:11:41;;;;;;;31.98;14.23;;;;;;;;;;6208930;23;20005;-80
2024/01/12 04:14:16;;;;;;;26.38;13.43;;;;;;;;;;6238269;23;20000;-80
2024/01/12 04:16:44;;;;;;;29.88;13.65;;;;;;;;;;6215656;22;20016;-81
2024/01/12 04:19:10;;;;;;;27.52;14.27;;;;;;;;;;6243063;22;20524;-80
2024/01/12 04:21:41;;;;;;;34.15;14.93;;;;;;;;;;6236724;23;20391;-80
2024/01/12 04:24:08;;;;;;;34.78;14.48;;;;;;;;;;6238484;23;20148;-80
2024/01/12 04:27:03;;;;;;;29.50;14.13;;;;;;;;;;6238087;23;20005;-79
2024/01/12 04:29:33;;;;;;;30.40;14.27;;;;;;;;;;6241501;22;20019;-82
2024/01/12 04:32:01;;;;;;;32.95;14.85;;;;;;;;;;6243038;22;19992;-82
2024/01/12 04:34:30;;;;;;;40.13;15.82;;;;;;;;;;6239904;22;20020;-80
2024/01/12 04:37:02;;;;;;;30.38;13.50;;;;;;;;;;6214109;23;20009;-81
2024/01/12 04:39:42;;;;;;;;;;;-2.40;99.90;;;;;;6240190;23;19985;-79
2024/01/12 04:42:13;;;;;;;30.80;14.00;;;;;;;;;;6208440;23;19901;-80
2024/01/12 04:44:46;;;;;;;37.57;16.47;;;-2.40;99.90;;;;;;6238473;23;20004;-80
2024/01/12 04:47:12;;;;;;;36.75;17.40;;;;;;;;;;6186927;23;20028;-80
2024/01/12 04:49:41;;;;;;;38.47;17.70;;;;;;;;;;6210751;23;20008;-78
2024/01/12 04:52:12;;;;;;;34.58;16.67;;;;;;;;;;6186198;23;20035;-80
2024/01/12 04:54:44;;;;;;;36.08;15.10;;;;;;;;;;6229076;23;20005;-80
2024/01/12 04:57:29;;;;;;;33.65;13.70;;;;;;;;;;6236880;22;20055;-80
2024/01/12 05:00:01;;;;;;;30.90;14.32;;;;;;;;;;6241536;22;20005;-81
2024/01/12 05:02:29;;;;;;;33.87;15.93;;;;;;;;;;6242163;22;20012;-81
2024/01/12 05:04:59;;;;;;;35.25;15.43;;;;;;;;;;6212664;23;20032;-80
2024/01/12 05:07:28;;;;;;;36.27;15.03;;;;;;;;;;6236547;23;20020;-79
2024/01/12 05:10:15;;;;;;;32.25;15.18;;;;;;;;;;6210642;23;20295;-80
2024/01/12 05:12:41;;;;;;;38.60;16.67;;;;;;;;;;6223282;22;20643;-84
2024/01/12 05:15:07;;;;;;;34.27;16.10;;;;;;;;;;6219338;23;20067;-81
2024/01/12 05:17:33;;;;;;;36.65;16.00;;;;;;;;;;6193204;23;20005;-83
2024/01/12 05:20:06;;;;;;;38.70;16.52;;;;;;;;;;6194270;23;20039;-80
2024/01/12 05:22:32;;;;;;;32.03;14.93;;;;;;;;;;6218692;23;20063;-80
2024/01/12 05:24:58;;;;;;;38.77;15.47;;;;;;;;;;6219787;23;20058;-80
2024/01/12 05:27:24;;;;;;;31.93;14.40;;;;;;;;;;6194285;23;20004;-80
2024/01/12 05:29:50;;;;;;;32.63;14.90;;;;;;;;;;6192384;23;20012;-81
2024/01/12 05:32:16;;;;;;;40.10;15.20;;;-2.80;99.90;;;;;;6218783;23;20071;-79
2024/01/12 05:34:45;;;;;;;29.73;14.17;;;;;;;;;;6220817;23;20043;-82
2024/01/12 05:37:11;;;;;;;32.17;14.60;;;;;;;;;;6220820;23;20004;-82
2024/01/12 05:40:08;;;;;;;36.97;15.07;;;-2.70;99.90;;;;;;6222288;23;20068;-85
2024/01/12 05:42:46;;;;;;;33.20;14.90;;;;;;;;;;6176149;23;20571;-85
2024/01/12 05:45:12;;;;;;;32.03;15.10;;;;;;;;;;6219343;23;20004;-82
2024/01/12 05:47:38;;;;;;;32.33;15.30;;;;;;;;;;6193602;23;20067;-82
2024/01/12 05:50:06;;;;;;;33.60;15.47;;;-2.60;99.90;;;;;;6220278;23;20008;-80
2024/01/12 05:52:33;;;;;;;34.33;14.63;;;;;;;;;;6220517;23;20001;-82
2024/01/12 05:54:59;;;;;;;38.80;16.67;;;;;;;;;;6221190;23;20008;-83
2024/01/12 05:57:25;;;;;;;32.53;14.73;;;;;;;;;;6222594;23;20001;-82
2024/01/12 05:59:52;;;;;;;35.20;16.25;;;;;;;;;;6223786;23;20001;-82
2024/01/12 06:02:18;;;;;;;37.53;14.67;;;;;;;;;;6171602;23;20536;-79
2024/01/12 06:04:44;;;;;;;37.33;15.17;;;;;;;;;;6217383;23;20065;-82
2024/01/12 06:07:10;;;;;;;38.70;16.27;;;;;;;;;;6219662;23;20095;-82
2024/01/12 06:09:36;;;;;;;35.55;15.68;;;;;;;;;;6211692;22;20007;-85
2024/01/12 06:12:02;;;;;;;39.20;16.52;;;;;;;;;;6236934;22;19996;-83
2024/01/12 06:14:28;;;;;;;38.30;15.83;;;;;;;;;;6236812;22;20055;-82
2024/01/12 06:16:54;;;;;;;34.55;14.73;;;;;;;;;;6210396;23;20017;-84
2024/01/12 06:19:20;;;;;;;34.72;15.07;;;;;;;;;;6211846;23;20020;-83
2024/01/12 06:21:46;;;;;;;33.97;14.77;;;;;;;;;;6194070;23;20074;-82
2024/01/12 06:24:11;;;;;;;33.85;14.10;;;-1.80;99.90;;;;;;6188580;23;20000;-82
2024/01/12 06:26:38;;;;;;;27.95;12.27;;;;;;;;;;6217948;23;20596;-80
2024/01/12 06:29:03;;;;;;;28.42;12.75;;;;;;;;;;6193451;23;20000;-82
2024/01/12 06:31:32;;;;;;;30.70;11.90;;;;;;;;;;6219972;23;20012;-86
2024/01/12 06:33:58;;;;;;;27.02;11.32;;;;;;;;;;6191735;23;20011;-82
2024/01/12 06:38:35;;;;;;;32.92;14.25;;;;;;;;;;5077500;28;20128;-82
2024/01/12 06:41:02;;;;;;;31.07;15.00;;;-1.70;99.90;;;;;;5064394;28;20056;-82
2024/01/12 06:43:28;;;;;;;34.22;15.52;;;;;;;;;;5057849;28;20040;-82
2024/01/12 06:45:55;;;;;;;36.03;16.00;;;;;;;;;;5057834;28;20477;-82
2024/01/12 06:48:23;;;;;;;32.42;15.18;;;-1.60;99.90;;;;;;5063746;28;20036;-82
2024/01/12 06:50:50;;;;;;;33.60;14.90;;;-1.60;99.90;;;;;;5061811;28;20056;-82
2024/01/12 06:53:17;;;;;;;35.38;16.65;;;;;;;;;;5057242;28;20018;-80
2024/01/12 06:55:54;;;;;;;32.92;14.27;;;-1.50;99.90;;;;;;5061089;28;20541;-80
2024/01/12 06:58:30;;;;;;;33.28;16.15;;;-1.40;99.90;;;;;;5059470;28;20025;-82
2024/01/12 07:01:00;;;;;;;30.48;14.45;;;;;;;;;;5051907;28;20469;-82
2024/01/12 07:03:34;;;;;;;34.50;15.98;;;-1.40;99.90;;;;;;5056053;28;20036;-80
2024/01/12 07:06:05;;;;;;;32.25;15.57;;;;;;;;;;5052609;28;20082;-84
2024/01/12 07:08:31;;;;;;;36.33;15.48;;;-1.30;99.90;;;;;;5062300;28;20032;-81
2024/01/12 07:10:57;;;;;;;35.35;15.02;;;;;;;;;;5060635;28;20021;-82
2024/01/12 07:14:06;;;;;;;37.03;16.42;;;-1.30;99.90;;;;;;5069823;28;20027;-81
2024/01/12 07:17:04;;;;;;;36.10;16.90;;;-1.40;99.90;;;;;;5074831;28;20100;-82
2024/01/12 07:19:36;;;;;;;32.97;15.57;;;;;;;;;;5059814;28;20029;-80
2024/01/12 07:22:03;;;;;;;34.40;16.55;;;-1.40;99.90;;;;;;5076661;28;20040;-80
2024/01/12 07:24:29;;;;;;;36.58;15.73;;;-1.40;99.90;;;;;;5052672;28;20036;-80
2024/01/12 07:26:56;;;;;;;36.25;17.33;;;-1.30;99.90;;;;;;5067073;28;20071;-81
2024/01/12 07:29:23;;;;;;;32.95;16.60;;;-1.30;99.90;;;;;;5068734;28;20031;-82
2024/01/12 07:31:51;;;;;;;34.55;15.65;;;-1.40;99.90;;;;;;5061724;28;20489;-82
2024/01/12 07:34:25;;;;;;;32.70;16.08;;;-1.40;99.90;;;;;;5073391;28;20029;-81
2024/01/12 07:36:52;;;;;;;32.97;15.95;;;-1.30;99.90;;;;;;5069636;28;20237;-82
2024/01/12 07:39:19;;;;;;;33.83;16.52;;;-1.30;99.90;;;;;;5048692;28;20049;-82
2024/01/12 07:41:45;;;;;;;34.53;16.40;;;-1.30;99.90;;;;;;5063563;28;20037;-82
2024/01/12 07:44:12;;;;;;;36.83;16.40;;;;;;;;;;5067277;28;20086;-80
2024/01/12 07:46:39;;;;;;;32.42;12.75;;;;;;;;;;5072774;28;20108;-84
2024/01/12 07:49:05;;;;;;;33.28;14.95;;;;;;;;;;5061936;28;20040;-84
2024/01/12 07:51:34;;;;;;;31.75;15.73;;;;;;;;;;5068279;28;20020;-83
2024/01/12 07:54:03;;;;;;;36.95;16.88;;;;;;;;;;5075651;28;20073;-84
2024/01/12 07:56:29;;;;;;;31.95;15.60;;;;;;;;;;5072518;28;20029;-85
2024/01/12 07:58:56;;;;;;;33.47;15.80;;;;;;;;;;5058455;28;20037;-87
2024/01/12 08:01:24;;;;;;;35.67;16.85;;;;;;;;;;5067605;28;20052;-86
2024/01/12 08:03:51;;;;;;;31.25;14.35;;;;;;;;;;5056433;28;20081;-85
2024/01/12 08:06:17;;;;;;;30.85;14.77;;;;;;;;;;5058193;28;20022;-86
2024/01/12 08:08:43;;;;;;;29.08;14.73;;;;;;;;;;5067778;28;20029;-88
2024/01/12 08:11:09;;;;;;;32.50;15.15;;;;;;;;;;5054567;28;20032;-83
2024/01/12 08:13:35;;;;;;;33.03;15.13;;;;;;;;;;5064825;28;20382;-86
2024/01/12 08:16:01;;;;;;;32.65;14.52;;;;;;;;;;5074202;28;20029;-86
2024/01/12 08:18:28;;;;;;;33.85;14.70;;;;;;;;;;5059864;28;20021;-86
2024/01/12 08:20:54;;;;;;;25.45;12.05;;;;;;;;;;5054848;28;20074;-85
2024/01/12 08:23:20;;;;;;;29.77;13.38;;;;;;;;;;5063208;28;20036;-87
2024/01/12 08:25:47;;;;;;;27.50;12.68;;;-0.90;99.90;;;;;;5067000;28;20031;-82
2024/01/12 08:28:13;;;;;;;21.55;10.73;;;;;;;;;;5091840;28;20039;-84
2024/01/12 08:30:39;;;;;;;27.60;12.63;;;;;;;;;;5092078;28;20021;-87
2024/01/12 08:33:05;;;;;;;20.20;10.70;;;;;;;;;;5084177;28;20027;-87
2024/01/12 08:35:31;;;;;;;24.65;11.60;;;;;;;;;;5076159;28;20039;-88
2024/01/12 08:37:57;;;;;;;22.58;10.85;;;;;;;;;;5073915;28;20033;-88
2024/01/12 08:40:23;;;;;;;23.33;10.23;;;;;;;;;;5073896;28;20029;-87
2024/01/12 08:42:49;;;;;;;24.35;10.35;;;;;;;;;;5072911;28;20055;-84
2024/01/12 08:45:15;;;;;;;23.88;10.13;;;;;;;;;;5074451;28;20025;-84
2024/01/12 08:47:41;;;;;;;23.23;11.07;;;;;;;;;;5074906;28;20033;-88
2024/01/12 08:50:07;;;;;;;21.67;9.85;;;;;;;;;;5076674;28;20093;-88
2024/01/12 08:52:33;;;;;;;17.25;9.05;;;;;;;;;;5075344;28;20160;-86
2024/01/12 08:55:00;;;;;;;18.33;9.23;;;;;;;;;;5076319;28;20021;-86
2024/01/12 08:57:26;;;;;;;17.58;8.77;;;;;;;;;;5076029;28;20031;-86
2024/01/12 08:59:52;;;;;;;15.18;7.57;;;;;;;;;;5073374;28;20021;-85
2024/01/12 09:02:18;;;;;;;16.17;8.23;;;;;;;;;;5068966;28;20033;-86
2024/01/12 09:04:44;;;;;;;13.18;6.97;;;;;;;;;;5071865;28;20063;-84
2024/01/12 09:07:10;;;;;;;15.15;8.23;;;;;;;;;;5073876;28;20480;-85
2024/01/12 09:09:36;;;;;;;15.48;8.25;;;;;;;;;;5066168;28;20021;-81
2024/01/12 09:12:02;;;;;;;13.77;6.95;;;;;;;;;;5065280;28;20029;-82
2024/01/12 09:14:28;;;;;;;11.50;6.38;;;;;;;;;;5065883;28;20088;-82
2024/01/12 09:16:54;;;;;;;14.90;7.15;;;;;;;;;;5065731;28;20029;-81
2024/01/12 09:19:20;;;;;;;13.20;6.10;;;;;;;;;;5065605;28;20081;-87
2024/01/12 09:21:46;;;;;;;16.33;7.25;;;;;;;;;;5066161;28;20025;-82
2024/01/12 09:24:12;;;;;;;11.55;6.30;;;;;;;;;;5067999;28;20031;-87
2024/01/12 09:26:39;;;;;;;14.00;6.65;;;;;;;;;;5072384;28;20025;-85
2024/01/12 09:29:05;;;;;;;12.38;6.40;;;;;;;;;;5068500;28;20056;-84
2024/01/12 09:31:31;;;;;;;12.15;5.65;;;;;;;;;;5065480;28;20029;-81
2024/01/12 09:33:58;;;;;;;12.15;5.95;;;;;;;;;;5054904;28;20033;-81
2024/01/12 09:36:24;;;;;;;12.13;6.20;;;;;;;;;;5048209;28;20033;-84
2024/01/12 09:38:50;;;;;;;16.63;7.85;;;;;;;;;;5064777;28;20025;-82
2024/01/12 09:41:28;;;;;;;13.48;6.85;;;0.00;99.90;;;;;;5064898;28;20036;-83
2024/01/12 09:43:59;;;;;;;16.35;6.95;;;-0.10;99.90;;;;;;5046433;28;20036;-81
2024/01/12 09:46:30;;;;;;;13.05;6.97;;;-0.20;99.90;;;;;;5045265;28;20033;-81
2024/01/12 09:48:56;;;;;;;15.35;7.93;;;;;;;;;;5060455;28;20053;-82
2024/01/12 09:51:22;;;;;;;13.45;7.35;;;;;;;;;;5051175;28;20032;-85
2024/01/12 09:53:48;;;;;;;14.70;7.45;;;;;;;;;;5054833;28;20025;-83
2024/01/12 09:56:14;;;;;;;14.82;7.65;;;;;;;;;;5045887;28;20036;-83
2024/01/12 09:58:40;;;;;;;15.23;7.55;;;-0.20;99.90;;;;;;5062331;28;20029;-85
2024/01/12 10:01:10;;;;;;;16.52;8.07;;;;;;;;;;5060770;28;20029;-80
2024/01/12 10:03:38;;;;;;;14.23;7.50;;;;;;;;;;5060630;28;20033;-81
2024/01/12 10:06:04;;;;;;;15.73;7.57;;;-0.10;99.90;;;;;;5062371;28;20051;-82
2024/01/12 10:08:37;;;;;;;14.02;7.40;;;-0.10;99.90;;;;;;5061033;28;20032;-82
2024/01/12 10:11:03;;;;;;;18.48;7.78;;;;;;;;;;5042098;28;20029;-80
2024/01/12 10:13:29;;;;;;;21.40;9.38;;;;;;;;;;5042403;28;20021;-80
2024/01/12 10:15:56;;;;;;;17.08;7.95;;;;;;;;;;5056746;28;20089;-88
2024/01/12 10:18:23;;;;;;;15.82;7.78;;;;;;;;;;5057538;28;20048;-88
2024/01/12 10:20:50;;;;;;;16.48;7.63;;;;;;;;;;5075654;28;20001;-86
2024/01/12 10:23:22;;;;;;;17.17;7.82;;;-0.10;99.90;;;;;;5076707;28;20092;-87
2024/01/12 10:25:59;;;;;;;17.35;8.32;;;0.00;99.90;;;;;;5063064;28;20025;-87
2024/01/12 10:28:28;;;;;;;16.15;7.70;;;0.00;99.90;;;;;;5076114;28;20025;-84
2024/01/12 10:30:54;;;;;;;17.65;8.48;;;;;;;;;;5076545;28;20096;-86
2024/01/12 10:33:20;;;;;;;16.13;8.57;;;;;;;;;;5075007;28;20018;-85
2024/01/12 10:35:49;;;;;;;16.95;8.40;;;;;;;;;;5075628;28;20040;-88
2024/01/12 10:38:16;;;;;;;15.00;7.90;;;-0.20;99.90;;;;;;5075068;28;20047;-84
2024/01/12 10:40:42;;;;;;;16.77;9.00;;;;;;;;;;5061566;28;20026;-85
2024/01/12 10:43:12;;;;;;;18.40;8.55;;;;;;;;;;5046031;28;20017;-83
2024/01/12 10:45:44;;;;;;;18.45;8.75;;;0.00;99.90;;;;;;5061609;28;20028;-81
2024/01/12 10:48:13;;;;;;;16.27;7.50;;;0.00;99.90;;;;;;5056746;28;20029;-83
2024/01/12 10:50:45;;;;;;;15.75;8.25;;;0.10;99.90;;;;;;5038932;28;20075;-82
2024/01/12 10:53:21;;;;;;;16.90;7.95;;;;;;;;;;5048278;28;20032;-81
2024/01/12 10:55:53;;;;;;;14.77;8.30;;;0.10;99.90;;;;;;5058097;28;20017;-80
2024/01/12 10:58:20;;;;;;;15.10;8.43;;;;;;;;;;5041306;28;20040;-80
2024/01/12 11:00:47;;;;;;;18.15;9.75;;;;;;;;;;5049539;28;20374;-80
2024/01/12 11:03:18;;;;;;;16.67;8.88;;;;;;;;;;5040825;28;20030;-82
2024/01/12 11:05:44;;;;;;;19.83;8.95;;;;;;;;;;5046628;28;20021;-80
2024/01/12 11:08:11;;;;;;;14.25;8.65;;;0.20;99.90;;;;;;5060898;28;20036;-80
2024/01/12 11:10:46;;;;;;;18.67;10.20;;;0.10;99.90;;;;;;5059723;28;20092;-80
2024/01/12 11:13:16;;;;;;;17.77;10.07;;;0.10;99.90;;;;;;5057088;28;20635;-82
2024/01/12 11:15:42;;;;;;;18.83;9.80;;;;;;;;;;5053065;28;20099;-82
2024/01/12 11:18:08;;;;;;;21.05;9.63;;;;;;;;;;5039257;28;20025;-80
2024/01/12 11:20:34;;;;;;;20.58;10.45;;;;;;;;;;5046306;28;20026;-81
2024/01/12 11:23:00;;;;;;;19.70;9.40;;;;;;;;;;5043681;28;20036;-85
2024/01/12 11:25:27;;;;;;;18.13;9.30;;;;;;;;;;5054103;28;20054;-87
2024/01/12 11:27:55;;;;;;;19.40;9.38;;;;;;;;;;5065734;28;20088;-82
2024/01/12 11:30:22;;;;;;;17.75;9.63;;;0.10;99.90;;;;;;5065504;28;20143;-85
2024/01/12 11:32:49;;;;;;;21.75;9.43;;;;;;;;;;5065526;28;20043;-81
2024/01/12 11:35:15;;;;;;;20.13;9.15;;;;;;;;;;5067271;28;20089;-85
2024/01/12 11:37:45;;;;;;;17.30;8.05;;;0.30;99.90;;;;;;5065084;28;20037;-85
2024/01/12 11:40:13;;;;;;;18.83;9.27;;;0.30;99.90;;;;;;5060505;28;20032;-84
2024/01/12 11:42:40;;;;;;;16.17;8.73;;;0.40;99.90;;;;;;5062211;28;20029;-84
2024/01/12 11:45:11;;;;;;;16.27;8.93;;;0.40;99.90;;;;;;5063486;28;20116;-80
2024/01/12 11:47:38;;;;;;;14.48;8.02;;;;;;;;;;5059222;28;20029;-83
2024/01/12 11:50:04;;;;;;;18.70;9.65;;;;;;;;;;5061176;28;20036;-80
2024/01/12 11:52:31;;;;;;;16.98;8.85;;;;;;;;;;5052406;28;20117;-81
2024/01/12 11:54:57;;;;;;;16.70;8.63;;;;;;;;;;5039154;28;20747;-80
2024/01/12 11:57:25;;;;;;;15.80;8.95;;;;;;;;;;5041336;28;20025;-82
2024/01/12 11:59:51;;;;;;;16.63;8.77;;;;;;;;;;5041383;28;20045;-81
2024/01/12 12:02:17;;;;;;;15.25;8.95;;;;;;;;;;5041921;28;20118;-85
2024/01/12 12:04:43;;;;;;;16.45;8.60;;;0.30;99.90;;;;;;5055750;28;20079;-83
2024/01/12 12:07:09;;;;;;;20.27;9.65;;;;;;;;;;5053967;28;20029;-84
2024/01/12 12:09:37;;;;;;;21.05;9.65;;;0.40;99.90;;;;;;5025027;28;20037;-85
2024/01/12 12:12:08;;;;;;;17.17;9.07;;;0.40;99.90;;;;;;5059938;28;20029;-83
2024/01/12 12:14:33;;;;;;;;;;;0.40;99.90;;;;;;5064543;28;20033;-83
2024/01/12 12:17:00;;;;;;;16.25;8.50;;;;;;;;;;5066367;28;19968;-81
2024/01/12 12:19:26;;;;;;;16.52;8.75;;;;;;;;;;5065771;28;20033;-85
2024/01/12 12:21:52;;;;;;;18.73;10.35;;;;;;;;;;5047028;28;20029;-83
2024/01/12 12:24:18;;;;;;;18.75;9.68;;;;;;;;;;5059835;28;20021;-84
2024/01/12 12:26:44;;;;;;;18.38;10.07;;;;;;;;;;5059396;28;20470;-81
2024/01/12 12:29:10;;;;;;;18.55;9.65;;;;;;;;;;5060275;28;20029;-80
2024/01/12 12:31:40;;;;;;;19.13;10.40;;;0.00;99.90;;;;;;5062091;28;20044;-82
2024/01/12 12:34:06;;;;;;;17.08;9.50;;;;;;;;;;5050850;28;20037;-79
2024/01/12 12:36:32;;;;;;;19.45;9.90;;;;;;;;;;5055400;28;20075;-83
2024/01/12 12:38:58;;;;;;;16.77;9.32;;;;;;;;;;5058697;28;20450;-82
2024/01/12 12:41:24;;;;;;;17.60;9.23;;;;;;;;;;5059697;28;20027;-83
2024/01/12 12:43:51;;;;;;;15.68;8.63;;;;;;;;;;5061520;28;20025;-80
2024/01/12 12:46:17;;;;;;;17.40;8.98;;;;;;;;;;5058779;28;20055;-80
2024/01/12 12:48:46;;;;;;;15.35;8.82;;;;;;;;;;5061941;28;20032;-81
2024/01/12 12:51:12;;;;;;;22.05;10.48;;;;;;;;;;5061590;28;20037;-84
2024/01/12 12:53:38;;;;;;;17.85;9.60;;;;;;;;;;5061112;28;20033;-83
2024/01/12 12:56:04;;;;;;;18.48;10.52;;;;;;;;;;5061203;28;20028;-81
2024/01/12 12:58:33;;;;;;;18.00;9.88;;;;;;;;;;5061242;28;20036;-80
2024/01/12 13:01:00;;;;;;;14.73;8.77;;;;;;;;;;5043051;28;20632;-89
2024/01/12 13:03:26;;;;;;;18.30;9.10;;;;;;;;;;5024380;28;20041;-83
2024/01/12 13:05:53;;;;;;;16.45;9.10;;;;;;;;;;5024202;28;20057;-80
2024/01/12 13:08:19;;;;;;;18.55;9.50;;;;;;;;;;5058914;28;20052;-80
2024/01/12 13:10:45;;;;;;;20.50;9.05;;;;;;;;;;5060020;28;20401;-80
2024/01/12 13:13:11;;;;;;;17.05;9.25;;;;;;;;;;5041094;28;20052;-80
2024/01/12 13:15:38;;;;;;;19.20;9.65;;;;;;;;;;5058682;28;20484;-80
2024/01/12 13:18:04;;;;;;;16.90;9.20;;;;;;;;;;5059831;28;20630;-79
2024/01/12 13:20:32;;;;;;;16.92;9.52;;;0.50;99.90;;;;;;5063764;28;20025;-85
2024/01/12 13:22:59;;;;;;;19.80;9.80;;;;;;;;;;5064756;28;20047;-83
2024/01/12 13:25:25;;;;;;;18.25;9.77;;;;;;;;;;5065078;28;20036;-82
2024/01/12 13:27:51;;;;;;;17.67;8.75;;;;;;;;;;5068830;28;20036;-84
2024/01/12 13:30:18;;;;;;;19.20;9.88;;;;;;;;;;5065358;28;20029;-79
2024/01/12 13:32:44;;;;;;;17.92;9.68;;;;;;;;;;5059472;28;20040;-81
2024/01/12 13:35:10;;;;;;;19.15;10.13;;;;;;;;;;5067674;28;20106;-83
2024/01/12 13:37:36;;;;;;;19.50;10.23;;;;;;;;;;5060865;28;20029;-89
2024/01/12 13:40:02;;;;;;;20.30;10.50;;;;;;;;;;5074742;28;20009;-86
2024/01/12 13:42:29;;;;;;;20.17;10.82;;;;;;;;;;5061192;28;20021;-84
2024/01/12 13:44:55;;;;;;;19.13;9.93;;;;;;;;;;5054160;28;20087;-83
2024/01/12 13:47:21;;;;;;;19.65;10.30;;;;;;;;;;5047662;28;20029;-83
2024/01/12 13:49:48;;;;;;;20.20;10.15;;;;;;;;;;5045080;28;20044;-81
2024/01/12 13:52:14;;;;;;;17.10;9.75;;;;;;;;;;5050763;28;20029;-81
2024/01/12 13:54:40;;;;;;;18.20;10.10;;;;;;;;;;5053384;28;20030;-82
2024/01/12 13:57:06;;;;;;;19.27;9.75;;;;;;;;;;5052415;28;20091;-80
2024/01/12 13:59:32;;;;;;;18.60;10.05;;;;;;;;;;5058504;28;20033;-80